Current Conditions
Gewitter
Bedingungen




Pressure
1004.92 (hPa) - 29.68 (inHG)
Visibility

10.0 (km) - 6.2 (miles)
   Temperature
19  °C
66°F
16  °C
Dewpoint
83  %
 Humidity
   Wind Speed
10  km/h
5  kts
6  mph
2.7  m/s
   Wind Direction
 80°
Due East
   Airport Data
LOWW
Location Vienna International 36 km (22.37 mi)
Metar :LOWW 031220Z 08005KT 9999 -TSRA FEW030 BKN050 FEW050CB 19/16 Q1005 RERA TEMPO TS
Wed 3rd June 14:20 pm
   Raw Metar Info
Raw METAR is the most common format in the world for the transmission of observational weather data. It is highly standardized through the International Civil Aviation Organization (ICAO), which allows it to be understood throughout most of the world.
   API Info
Data Provided by
https://www.checkwx.com/weather/LOWW
   © Info
CSS/SVG/PHP scripts were developed by weather34.com for use in the weather34 template © 2015-2020

Guide Info provided by Metar-Wikipedia